createdAt,value
2018-05-29T00:00:43.871Z,0
2018-05-29T00:01:45.919Z,0
2018-05-29T00:02:47.970Z,0
2018-05-29T00:03:50.007Z,0
2018-05-29T00:04:52.057Z,0
2018-05-29T00:05:54.100Z,0
2018-05-29T00:06:56.149Z,0
2018-05-29T00:07:58.482Z,0
2018-05-29T00:09:01.186Z,0
2018-05-29T00:10:03.234Z,0
2018-05-29T00:11:05.285Z,0
2018-05-29T00:12:07.326Z,0
2018-05-29T00:13:09.694Z,0
2018-05-29T00:14:12.034Z,0
2018-05-29T00:15:14.086Z,0
2018-05-29T00:16:16.126Z,0
2018-05-29T00:17:18.471Z,0
2018-05-29T00:18:20.524Z,0
2018-05-29T00:19:22.564Z,0
2018-05-29T00:20:24.606Z,0
2018-05-29T00:21:26.649Z,0
2018-05-29T00:22:28.695Z,0
2018-05-29T00:23:30.744Z,0
2018-05-29T00:24:32.787Z,0
2018-05-29T00:25:34.825Z,0
2018-05-29T00:26:36.868Z,0
2018-05-29T00:27:38.925Z,0
2018-05-29T00:28:40.959Z,0
2018-05-29T00:29:43.002Z,0
2018-05-29T00:30:45.425Z,0
2018-05-29T00:31:47.462Z,0
2018-05-29T00:32:49.510Z,0
2018-05-29T00:33:51.558Z,0
2018-05-29T00:34:53.997Z,0
2018-05-29T00:35:57.248Z,0
2018-05-29T00:36:59.659Z,0
2018-05-29T00:38:01.999Z,0
2018-05-29T00:39:04.378Z,0
2018-05-29T00:40:06.385Z,0
2018-05-29T00:41:08.436Z,0
2018-05-29T00:42:10.765Z,0
2018-05-29T00:43:13.126Z,0
2018-05-29T00:44:15.161Z,0
2018-05-29T00:45:17.211Z,0
2018-05-29T00:46:19.260Z,0
2018-05-29T00:47:21.583Z,0
2018-05-29T00:48:23.624Z,0
2018-05-29T00:49:25.961Z,0
2018-05-29T00:50:28.002Z,0
2018-05-29T00:51:30.359Z,0
2018-05-29T00:52:32.686Z,0
2018-05-29T00:53:34.736Z,0
2018-05-29T00:54:36.784Z,0
2018-05-29T00:55:38.821Z,0
2018-05-29T00:56:41.551Z,0
2018-05-29T00:57:43.601Z,0
2018-05-29T00:58:45.960Z,0
2018-05-29T00:59:48.004Z,0
2018-05-29T01:00:50.324Z,0
2018-05-29T01:01:52.688Z,0
2018-05-29T01:02:54.737Z,0
2018-05-29T01:03:57.063Z,0
2018-05-29T01:04:59.107Z,0
2018-05-29T01:06:01.443Z,0
2018-05-29T01:07:03.488Z,0
2018-05-29T01:08:05.520Z,0
2018-05-29T01:09:07.557Z,0
2018-05-29T01:10:10.004Z,0
2018-05-29T01:11:12.044Z,0
2018-05-29T01:12:14.089Z,0
2018-05-29T01:13:16.141Z,0
2018-05-29T01:14:18.195Z,0
2018-05-29T01:15:20.232Z,0
2018-05-29T01:16:22.264Z,0
2018-05-29T01:17:24.321Z,0
2018-05-29T01:18:26.361Z,0
2018-05-29T01:19:28.409Z,0
2018-05-29T01:20:30.459Z,0
2018-05-29T01:21:32.508Z,0
2018-05-29T01:22:34.553Z,0
2018-05-29T01:23:36.604Z,0
2018-05-29T01:24:38.635Z,0
2018-05-29T01:25:40.681Z,0
2018-05-29T01:26:43.113Z,0
2018-05-29T01:27:45.160Z,0
2018-05-29T01:28:47.209Z,0
2018-05-29T01:29:49.259Z,0
2018-05-29T01:30:51.297Z,0
2018-05-29T01:31:53.339Z,0
2018-05-29T01:32:55.372Z,0
2018-05-29T01:33:57.432Z,0
2018-05-29T01:35:00.188Z,0
2018-05-29T01:36:02.512Z,0
2018-05-29T01:37:04.553Z,0
2018-05-29T01:38:06.597Z,0
2018-05-29T01:39:08.643Z,0
2018-05-29T01:40:10.692Z,0
2018-05-29T01:41:12.736Z,0
2018-05-29T01:42:14.792Z,0
2018-05-29T01:43:16.835Z,0
2018-05-29T01:44:18.877Z,0
2018-05-29T01:45:21.311Z,0
2018-05-29T01:46:23.353Z,0
2018-05-29T01:47:25.697Z,0
2018-05-29T01:48:28.026Z,0
2018-05-29T01:49:30.062Z,0
2018-05-29T01:50:32.118Z,0
2018-05-29T01:51:34.446Z,0
2018-05-29T01:52:36.495Z,0
2018-05-29T01:53:38.921Z,0
2018-05-29T01:54:41.256Z,0
2018-05-29T01:55:43.292Z,0
2018-05-29T01:56:45.610Z,0
2018-05-29T01:57:47.670Z,0
2018-05-29T01:58:49.713Z,0
2018-05-29T01:59:51.758Z,0
2018-05-29T02:00:53.801Z,0
2018-05-29T02:01:56.445Z,0
2018-05-29T02:02:58.489Z,0
2018-05-29T02:04:00.859Z,0
2018-05-29T02:05:03.221Z,0
2018-05-29T02:06:05.272Z,0
2018-05-29T02:07:07.595Z,0
2018-05-29T02:08:09.644Z,4
2018-05-29T02:09:11.692Z,4
2018-05-29T02:10:13.733Z,4
2018-05-29T02:11:16.063Z,0
2018-05-29T02:12:18.104Z,0
2018-05-29T02:13:20.146Z,4
2018-05-29T02:14:22.192Z,4
2018-05-29T02:15:24.249Z,4
2018-05-29T02:16:26.279Z,4
2018-05-29T02:17:28.324Z,4
2018-05-29T02:18:30.370Z,8
2018-05-29T02:19:32.414Z,8
2018-05-29T02:20:34.461Z,8
2018-05-29T02:21:36.504Z,8
2018-05-29T02:22:38.547Z,8
2018-05-29T02:23:40.598Z,12
2018-05-29T02:24:42.630Z,16
2018-05-29T02:25:44.679Z,16
2018-05-29T02:26:46.723Z,20
2018-05-29T02:27:48.766Z,16
2018-05-29T02:28:51.116Z,20
2018-05-29T02:29:53.154Z,24
2018-05-29T02:30:55.507Z,28
2018-05-29T02:31:57.553Z,32
2018-05-29T02:32:59.597Z,36
2018-05-29T02:34:02.040Z,40
2018-05-29T02:35:04.079Z,48
2018-05-29T02:36:06.123Z,48
2018-05-29T02:37:08.457Z,56
2018-05-29T02:38:10.510Z,64
2018-05-29T02:39:12.561Z,72
2018-05-29T02:40:14.603Z,80
2018-05-29T02:41:16.646Z,88
2018-05-29T02:42:18.695Z,96
2018-05-29T02:43:20.743Z,108
2018-05-29T02:44:23.068Z,120
2018-05-29T02:45:25.132Z,128
2018-05-29T02:46:27.861Z,144
2018-05-29T02:47:30.570Z,156
2018-05-29T02:48:32.615Z,168
2018-05-29T02:49:34.664Z,184
2018-05-29T02:50:36.710Z,204
2018-05-29T02:51:38.758Z,220
2018-05-29T02:52:40.802Z,240
2018-05-29T02:53:42.840Z,256
2018-05-29T02:54:44.882Z,280
2018-05-29T02:55:46.928Z,300
2018-05-29T02:56:49.344Z,320
2018-05-29T02:57:51.388Z,344
2018-05-29T02:58:53.438Z,372
2018-05-29T02:59:55.477Z,396
2018-05-29T03:00:57.525Z,420
2018-05-29T03:01:59.568Z,452
2018-05-29T03:03:01.615Z,480
2018-05-29T03:04:03.662Z,508
2018-05-29T03:05:05.702Z,540
2018-05-29T03:06:07.753Z,572
2018-05-29T03:07:09.800Z,608
2018-05-29T03:08:11.844Z,640
2018-05-29T03:09:14.171Z,672
2018-05-29T03:10:16.213Z,708
2018-05-29T03:11:18.248Z,744
2018-05-29T03:12:20.299Z,784
2018-05-29T03:13:22.335Z,816
2018-05-29T03:14:24.665Z,860
2018-05-29T03:15:26.712Z,892
2018-05-29T03:16:29.532Z,936
2018-05-29T03:17:31.570Z,972
2018-05-29T03:18:33.620Z,1016
2018-05-29T03:19:35.659Z,1056
2018-05-29T03:20:37.720Z,1092
2018-05-29T03:21:39.760Z,1132
2018-05-29T03:22:41.806Z,1172
2018-05-29T03:23:43.850Z,1212
2018-05-29T03:24:45.895Z,1260
2018-05-29T03:25:47.937Z,1304
2018-05-29T03:26:49.985Z,1344
2018-05-29T03:27:52.016Z,1388
2018-05-29T03:28:54.059Z,1432
2018-05-29T03:29:56.119Z,1476
2018-05-29T03:30:58.164Z,1520
2018-05-29T03:32:00.891Z,1568
2018-05-29T03:33:02.938Z,1616
2018-05-29T03:34:04.990Z,1656
2018-05-29T03:35:07.030Z,1700
2018-05-29T03:36:09.073Z,1740
2018-05-29T03:37:11.109Z,1796
2018-05-29T03:38:13.165Z,1836
2018-05-29T03:39:15.203Z,1880
2018-05-29T03:40:17.251Z,1932
2018-05-29T03:41:19.588Z,1968
2018-05-29T03:42:21.629Z,2012
2018-05-29T03:43:23.667Z,2056
2018-05-29T03:44:25.709Z,2100
2018-05-29T03:45:28.036Z,2144
2018-05-29T03:46:30.080Z,2188
2018-05-29T03:47:32.117Z,2232
2018-05-29T03:48:34.170Z,2272
2018-05-29T03:49:36.210Z,2312
2018-05-29T03:50:38.259Z,2356
2018-05-29T03:51:40.340Z,2408
2018-05-29T03:52:42.659Z,2440
2018-05-29T03:53:44.701Z,2484
2018-05-29T03:54:46.743Z,2520
2018-05-29T03:55:48.787Z,2556
2018-05-29T03:56:51.121Z,2600
2018-05-29T03:57:53.170Z,2644
2018-05-29T03:58:55.218Z,2684
2018-05-29T03:59:57.255Z,2724
2018-05-29T04:00:59.625Z,2776
2018-05-29T04:02:01.662Z,2816
2018-05-29T04:03:04.384Z,2856
2018-05-29T04:04:06.434Z,2904
2018-05-29T04:05:08.478Z,2936
2018-05-29T04:06:11.206Z,2984
2018-05-29T04:07:13.249Z,3028
2018-05-29T04:08:15.582Z,3060
2018-05-29T04:09:17.658Z,3108
2018-05-29T04:10:19.680Z,3144
2018-05-29T04:11:21.730Z,3192
2018-05-29T04:12:23.757Z,3228
2018-05-29T04:13:25.811Z,3276
2018-05-29T04:14:27.857Z,3324
2018-05-29T04:15:29.898Z,3364
2018-05-29T04:16:31.948Z,3404
2018-05-29T04:17:33.998Z,3444
2018-05-29T04:18:36.429Z,3492
2018-05-29T04:19:38.796Z,3532
2018-05-29T04:20:41.222Z,3572
2018-05-29T04:21:43.558Z,3624
2018-05-29T04:22:45.601Z,3672
2018-05-29T04:23:47.653Z,3708
2018-05-29T04:24:49.708Z,3752
2018-05-29T04:25:51.758Z,3804
2018-05-29T04:26:54.104Z,3852
2018-05-29T04:27:56.151Z,3896
2018-05-29T04:28:58.196Z,3936
2018-05-29T04:30:00.241Z,3984
2018-05-29T04:31:02.280Z,4028
2018-05-29T04:32:04.314Z,4076
2018-05-29T04:33:06.366Z,4116
2018-05-29T04:34:08.695Z,4164
2018-05-29T04:35:10.736Z,4208
2018-05-29T04:36:12.791Z,4256
2018-05-29T04:37:14.830Z,4284
2018-05-29T04:38:16.877Z,4332
2018-05-29T04:39:18.925Z,4360
2018-05-29T04:40:20.965Z,4400
2018-05-29T04:41:23.021Z,4448
2018-05-29T04:42:25.353Z,4476
2018-05-29T04:43:27.386Z,4508
2018-05-29T04:44:29.434Z,4544
2018-05-29T04:45:31.472Z,4572
2018-05-29T04:46:33.516Z,4600
2018-05-29T04:47:35.564Z,4632
2018-05-29T04:48:37.615Z,4676
2018-05-29T04:49:39.670Z,4696
2018-05-29T04:50:42.126Z,4736
2018-05-29T04:51:44.170Z,4776
2018-05-29T04:52:46.227Z,4828
2018-05-29T04:53:48.555Z,4852
2018-05-29T04:54:50.609Z,4896
2018-05-29T04:55:52.658Z,4952
2018-05-29T04:56:54.694Z,4980
2018-05-29T04:57:56.740Z,5024
2018-05-29T04:58:58.782Z,5064
2018-05-29T05:00:00.839Z,5100
2018-05-29T05:01:03.227Z,5140
2018-05-29T05:02:05.537Z,5180
2018-05-29T05:03:07.580Z,5212
2018-05-29T05:04:09.627Z,5248
2018-05-29T05:05:11.962Z,5304
2018-05-29T05:06:14.007Z,5352
2018-05-29T05:07:16.056Z,5388
2018-05-29T05:08:18.099Z,5432
2018-05-29T05:09:20.134Z,5484
2018-05-29T05:10:22.185Z,5540
2018-05-29T05:11:24.619Z,5584
2018-05-29T05:12:26.662Z,5612
2018-05-29T05:13:28.699Z,5656
2018-05-29T05:14:30.747Z,5688
2018-05-29T05:15:32.787Z,5724
2018-05-29T05:16:34.835Z,5760
2018-05-29T05:17:36.882Z,5772
2018-05-29T05:18:38.934Z,5796
2018-05-29T05:19:40.981Z,5860
2018-05-29T05:20:43.019Z,5888
2018-05-29T05:21:45.057Z,5908
2018-05-29T05:22:47.108Z,5944
2018-05-29T05:23:49.154Z,6016
2018-05-29T05:24:51.496Z,6024
2018-05-29T05:25:53.531Z,6048
2018-05-29T05:26:55.574Z,6076
2018-05-29T05:27:58.017Z,6108
2018-05-29T05:29:00.063Z,6148
2018-05-29T05:30:02.160Z,6188
2018-05-29T05:31:04.152Z,6216
2018-05-29T05:32:06.493Z,6224
2018-05-29T05:33:08.531Z,6256
2018-05-29T05:34:10.561Z,6280
2018-05-29T05:35:13.015Z,6304
2018-05-29T05:36:15.347Z,6336
2018-05-29T05:37:17.779Z,6384
2018-05-29T05:38:19.831Z,6424
2018-05-29T05:39:21.873Z,6460
2018-05-29T05:40:24.203Z,6516
2018-05-29T05:41:26.243Z,6552
2018-05-29T05:42:28.292Z,6576
2018-05-29T05:43:30.334Z,6616
2018-05-29T05:44:32.667Z,6648
2018-05-29T05:45:35.004Z,6696
2018-05-29T05:46:37.050Z,6724
2018-05-29T05:47:39.103Z,6768
2018-05-29T05:48:41.153Z,6784
2018-05-29T05:49:43.182Z,6832
2018-05-29T05:50:45.229Z,6872
2018-05-29T05:51:47.274Z,6904
2018-05-29T05:52:49.396Z,6928
2018-05-29T05:53:51.771Z,6968
2018-05-29T05:54:54.488Z,7012
2018-05-29T05:55:56.538Z,7028
2018-05-29T05:56:58.567Z,7060
2018-05-29T05:58:00.609Z,7100
2018-05-29T05:59:02.666Z,7152
2018-05-29T06:00:04.716Z,7148
2018-05-29T06:01:07.039Z,7164
2018-05-29T06:02:09.092Z,7196
2018-05-29T06:03:11.135Z,7228
2018-05-29T06:04:13.180Z,7260
2018-05-29T06:05:15.297Z,7300
2018-05-29T06:06:17.269Z,7328
2018-05-29T06:07:19.326Z,7352
2018-05-29T06:08:21.377Z,7408
2018-05-29T06:09:23.700Z,7432
2018-05-29T06:10:25.751Z,7444
2018-05-29T06:11:27.793Z,7476
2018-05-29T06:12:29.848Z,7508
2018-05-29T06:13:31.907Z,7532
2018-05-29T06:14:34.248Z,7540
2018-05-29T06:15:36.322Z,7580
2018-05-29T06:16:38.646Z,7608
2018-05-29T06:17:40.703Z,7640
2018-05-29T06:18:42.758Z,7660
2018-05-29T06:19:44.811Z,7712
2018-05-29T06:20:46.857Z,7720
2018-05-29T06:21:48.929Z,7756
2018-05-29T06:22:50.985Z,7796
2018-05-29T06:23:53.327Z,7824
2018-05-29T06:24:55.663Z,7856
2018-05-29T06:25:57.735Z,7900
2018-05-29T06:27:00.561Z,7916
2018-05-29T06:29:04.945Z,7984
2018-05-29T06:30:07.010Z,7984
2018-05-29T06:31:09.363Z,7992
2018-05-29T06:32:11.714Z,8008
2018-05-29T06:33:13.777Z,8020
2018-05-29T06:34:15.844Z,8040
2018-05-29T06:35:17.881Z,8044
2018-05-29T06:36:19.947Z,8052
2018-05-29T06:37:22.002Z,8060
2018-05-29T06:38:24.685Z,8040
2018-05-29T06:39:26.742Z,8064
2018-05-29T06:40:29.090Z,8052
2018-05-29T06:41:31.134Z,8060
2018-05-29T06:42:33.193Z,8076
2018-05-29T06:43:35.245Z,8104
2018-05-29T06:44:37.307Z,8128
2018-05-29T06:45:39.640Z,8160
2018-05-29T06:46:41.699Z,8176
2018-05-29T06:47:43.771Z,8232
2018-05-29T06:48:45.804Z,8256
2018-05-29T06:49:47.858Z,8280
2018-05-29T06:50:49.923Z,8300
2018-05-29T06:51:51.971Z,8332
2018-05-29T06:52:54.796Z,8340
2018-05-29T06:53:57.491Z,8380
2018-05-29T06:54:59.549Z,8412
2018-05-29T06:56:01.618Z,8432
2018-05-29T06:57:03.659Z,8464
2018-05-29T06:58:05.720Z,8492
2018-05-29T06:59:07.770Z,8500
2018-05-29T07:00:09.824Z,8512
2018-05-29T07:01:11.884Z,8536
2018-05-29T07:02:13.934Z,8556
2018-05-29T07:03:16.277Z,8560
2018-05-29T07:04:18.343Z,8576
2018-05-29T07:05:20.390Z,8576
2018-05-29T07:06:22.449Z,8580
2018-05-29T07:07:24.880Z,8612
2018-05-29T07:08:26.942Z,8620
2018-05-29T07:09:28.991Z,8628
2018-05-29T07:10:31.441Z,8672
2018-05-29T07:11:33.497Z,8700
2018-05-29T07:12:35.846Z,8740
2018-05-29T07:13:37.899Z,8760
2018-05-29T07:14:39.996Z,8780
2018-05-29T07:15:42.001Z,8804
2018-05-29T07:16:44.345Z,8820
2018-05-29T07:17:46.401Z,8836
2018-05-29T07:18:49.242Z,8864
2018-05-29T07:19:51.581Z,8904
2018-05-29T07:20:54.378Z,8936
2018-05-29T07:21:56.461Z,8972
2018-05-29T07:22:58.580Z,9016
2018-05-29T07:24:00.600Z,9052
2018-05-29T07:25:02.673Z,9076
2018-05-29T07:26:05.026Z,9096
2018-05-29T07:27:07.170Z,9136
2018-05-29T07:28:09.269Z,9172
2018-05-29T07:29:11.314Z,9188
2018-05-29T07:30:13.676Z,9224
2018-05-29T07:31:15.719Z,9244
2018-05-29T07:32:17.764Z,9276
2018-05-29T07:33:19.823Z,9288
2018-05-29T07:34:21.886Z,9296
2018-05-29T07:35:23.930Z,9312
2018-05-29T07:36:26.379Z,9340
2018-05-29T07:37:28.437Z,9364
2018-05-29T07:38:30.518Z,9404
2018-05-29T07:39:32.587Z,9420
2018-05-29T07:40:34.637Z,9484
2018-05-29T07:41:37.086Z,9512
2018-05-29T07:42:39.155Z,9548
2018-05-29T07:43:41.221Z,9596
2018-05-29T07:44:43.264Z,9656
2018-05-29T07:45:45.327Z,9684
2018-05-29T07:46:47.763Z,9708
2018-05-29T07:47:49.822Z,9748
2018-05-29T07:48:51.890Z,9792
2018-05-29T07:49:53.940Z,9840
2018-05-29T07:50:55.994Z,9872
2018-05-29T07:51:58.461Z,9912
2018-05-29T07:53:00.858Z,9960
2018-05-29T07:54:02.903Z,10012
2018-05-29T07:55:04.969Z,10068
2018-05-29T07:56:07.032Z,10116
2018-05-29T07:57:09.073Z,10160
2018-05-29T07:58:11.520Z,10172
2018-05-29T07:59:13.581Z,10228
2018-05-29T08:00:15.640Z,10276
2018-05-29T08:01:17.708Z,10332
2018-05-29T08:02:20.057Z,10400
2018-05-29T08:03:22.703Z,10440
2018-05-29T08:04:25.060Z,10532
2018-05-29T08:05:27.124Z,10548
2018-05-29T08:06:29.235Z,10596
2018-05-29T08:07:31.687Z,10652
2018-05-29T08:08:33.741Z,10688
2018-05-29T08:09:35.810Z,10744
2018-05-29T08:10:38.586Z,10760
2018-05-29T08:11:40.623Z,10804
2018-05-29T08:12:42.674Z,10852
2018-05-29T08:13:45.016Z,10900
2018-05-29T08:14:47.066Z,10968
2018-05-29T08:15:49.118Z,11012
2018-05-29T08:16:51.481Z,11060
2018-05-29T08:17:53.555Z,11148
2018-05-29T08:18:55.906Z,11180
2018-05-29T08:19:57.982Z,11208
2018-05-29T08:21:00.024Z,11244
2018-05-29T08:22:02.087Z,11268
2018-05-29T08:23:04.152Z,11408
2018-05-29T08:24:06.219Z,15740
2018-05-29T08:25:08.280Z,27232
2018-05-29T08:26:10.342Z,35072
2018-05-29T08:27:12.388Z,32032
2018-05-29T08:28:14.449Z,33088
2018-05-29T08:29:16.879Z,30272
2018-05-29T08:30:18.941Z,34464
2018-05-29T08:31:20.995Z,28512
2018-05-29T08:32:23.056Z,33792
2018-05-29T08:33:26.175Z,30240
2018-05-29T08:34:28.240Z,34848
2018-05-29T08:35:30.579Z,32320
2018-05-29T08:36:32.634Z,25248
2018-05-29T08:37:34.684Z,37760
2018-05-29T08:38:36.737Z,73344
2018-05-29T08:39:38.827Z,91776
2018-05-29T08:40:40.851Z,91072
2018-05-29T08:41:42.894Z,99104
2018-05-29T08:42:45.341Z,101536
2018-05-29T08:43:47.391Z,96352
2018-05-29T08:44:49.435Z,98368
2018-05-29T08:45:51.496Z,97632
2018-05-29T08:46:53.849Z,94016
2018-05-29T08:47:56.186Z,97664
2018-05-29T08:48:58.537Z,100768
2018-05-29T08:50:00.572Z,95296
2018-05-29T08:51:02.630Z,86112
2018-05-29T08:52:04.674Z,88736
2018-05-29T08:53:07.013Z,99872
2018-05-29T08:54:09.075Z,99200
2018-05-29T08:55:11.423Z,90912
2018-05-29T08:56:13.473Z,89408
2018-05-29T08:57:15.900Z,91808
2018-05-29T08:58:17.905Z,95136
2018-05-29T08:59:19.954Z,91904
2018-05-29T09:00:22.009Z,86208
2018-05-29T09:01:24.066Z,83008
2018-05-29T09:02:26.123Z,81184
2018-05-29T09:03:28.171Z,74592
2018-05-29T09:04:30.228Z,76384
2018-05-29T09:05:32.287Z,86272
2018-05-29T09:06:34.340Z,87808
2018-05-29T09:07:36.402Z,87296
2018-05-29T09:08:38.454Z,91072
2018-05-29T09:09:40.516Z,92064
2018-05-29T09:10:42.863Z,90016
2018-05-29T09:11:44.932Z,87712
2018-05-29T09:12:47.388Z,80928
2018-05-29T09:13:49.439Z,78464
2018-05-29T09:14:51.494Z,85088
2018-05-29T09:15:53.561Z,90528
2018-05-29T09:16:55.917Z,93760
2018-05-29T09:17:57.968Z,100768
2018-05-29T09:19:00.025Z,97888
2018-05-29T09:20:02.140Z,95904
2018-05-29T09:21:04.648Z,101312
2018-05-29T09:22:06.701Z,104736
2018-05-29T09:23:08.768Z,103520
2018-05-29T09:24:11.110Z,95936
2018-05-29T09:25:13.152Z,94848
2018-05-29T09:26:15.596Z,96864
2018-05-29T09:27:17.652Z,96992
2018-05-29T09:28:19.712Z,96544
2018-05-29T09:29:21.767Z,97696
2018-05-29T09:30:23.816Z,95872
2018-05-29T09:31:25.877Z,95200
2018-05-29T09:32:27.925Z,97792
2018-05-29T09:33:30.262Z,95168
2018-05-29T09:34:32.334Z,95808
2018-05-29T09:35:34.481Z,100576
2018-05-29T09:36:36.953Z,101728
2018-05-29T09:37:39.022Z,100640
2018-05-29T09:38:41.079Z,99296
2018-05-29T09:39:43.153Z,96576
2018-05-29T09:40:45.206Z,99264
2018-05-29T09:41:47.266Z,98816
2018-05-29T09:42:49.329Z,101568
2018-05-29T09:43:51.665Z,104608
2018-05-29T09:44:54.008Z,104320
2018-05-29T09:45:56.536Z,106400
2018-05-29T09:46:58.518Z,107296
2018-05-29T09:48:00.568Z,107136
2018-05-29T09:49:02.953Z,112544
2018-05-29T09:50:05.012Z,115488
2018-05-29T09:51:07.058Z,114688
2018-05-29T09:52:09.119Z,112800
2018-05-29T09:53:11.462Z,117216
2018-05-29T09:54:13.801Z,120640
2018-05-29T09:55:16.151Z,123520
2018-05-29T09:56:18.203Z,120448
2018-05-29T09:57:20.268Z,119936
2018-05-29T09:58:22.317Z,125920
2018-05-29T09:59:24.383Z,121504
2018-05-29T10:00:26.447Z,116288
2018-05-29T10:01:28.503Z,116992
2018-05-29T10:02:30.559Z,116736
2018-05-29T10:03:33.215Z,112512
2018-05-29T10:04:35.276Z,110752
2018-05-29T10:05:37.347Z,100448
2018-05-29T10:06:39.408Z,100032
2018-05-29T10:07:41.481Z,102080
2018-05-29T10:08:43.547Z,96064
2018-05-29T10:09:45.600Z,97856
2018-05-29T10:10:48.047Z,103008
2018-05-29T10:11:50.103Z,97888
2018-05-29T10:12:52.166Z,102816
2018-05-29T10:13:54.542Z,115296
2018-05-29T10:14:56.600Z,115168
2018-05-29T10:15:58.958Z,108896
2018-05-29T10:17:01.043Z,117248
2018-05-29T10:18:03.860Z,137664
2018-05-29T10:19:06.311Z,136576
2018-05-29T10:20:08.367Z,135808
2018-05-29T10:21:10.436Z,142272
2018-05-29T10:22:12.491Z,128768
2018-05-29T10:23:14.548Z,116576
2018-05-29T10:24:16.623Z,119776
2018-05-29T10:25:18.675Z,126752
2018-05-29T10:26:20.741Z,126720
2018-05-29T10:27:22.804Z,115616
2018-05-29T10:28:25.250Z,101280
2018-05-29T10:29:27.322Z,105248
2018-05-29T10:30:29.391Z,114240
2018-05-29T10:31:31.721Z,105024
2018-05-29T10:32:33.782Z,103392
2018-05-29T10:33:35.850Z,111520
2018-05-29T10:34:37.908Z,106400
2018-05-29T10:35:39.975Z,100544
2018-05-29T10:36:42.044Z,104512
2018-05-29T10:37:44.104Z,104544
2018-05-29T10:38:46.156Z,100096
2018-05-29T10:39:48.210Z,101440
2018-05-29T10:40:50.277Z,111552
2018-05-29T10:41:52.336Z,129760
2018-05-29T10:42:54.392Z,134208
2018-05-29T10:43:56.455Z,129888
2018-05-29T10:44:58.822Z,135712
2018-05-29T10:46:00.889Z,149888
2018-05-29T10:47:03.673Z,139744
2018-05-29T10:48:05.736Z,123360
2018-05-29T10:49:07.793Z,123520
2018-05-29T10:50:09.851Z,132896
2018-05-29T10:51:12.589Z,129184
2018-05-29T10:52:14.647Z,125440
2018-05-29T10:53:16.710Z,134112
2018-05-29T10:54:18.772Z,136000
2018-05-29T10:55:21.217Z,127936
2018-05-29T10:56:23.288Z,123360
2018-05-29T10:57:25.335Z,122176
2018-05-29T10:58:27.398Z,121792
2018-05-29T10:59:29.463Z,126304
2018-05-29T11:00:31.519Z,126208
2018-05-29T11:01:33.581Z,126432
2018-05-29T11:02:35.643Z,126848
2018-05-29T11:03:38.778Z,123776
2018-05-29T11:04:40.845Z,128640
2018-05-29T11:05:42.911Z,126272
2018-05-29T11:06:44.970Z,129280
2018-05-29T11:07:47.039Z,142656
2018-05-29T11:08:49.099Z,142336
2018-05-29T11:09:51.162Z,135680
2018-05-29T11:10:53.228Z,133280
2018-05-29T11:11:55.659Z,130112
2018-05-29T11:12:58.011Z,126496
2018-05-29T11:14:00.079Z,130080
2018-05-29T11:15:02.527Z,144064
2018-05-29T11:16:04.890Z,151136
2018-05-29T11:17:06.947Z,139232
2018-05-29T11:18:09.018Z,128736
2018-05-29T11:19:11.358Z,132832
2018-05-29T11:20:13.444Z,130752
2018-05-29T11:21:15.521Z,129536
2018-05-29T11:22:17.890Z,130080
2018-05-29T11:23:19.953Z,127424
2018-05-29T11:24:22.017Z,128704
2018-05-29T11:25:24.079Z,129696
2018-05-29T11:26:26.144Z,125344
2018-05-29T11:27:28.502Z,125792
2018-05-29T11:28:30.569Z,133568
2018-05-29T11:29:32.632Z,141184
2018-05-29T11:30:34.683Z,139488
2018-05-29T11:31:36.742Z,126176
2018-05-29T11:32:38.810Z,126688
2018-05-29T11:33:40.874Z,131872
2018-05-29T11:34:42.944Z,135200
2018-05-29T11:35:45.002Z,136032
2018-05-29T11:36:47.062Z,137824
2018-05-29T11:37:49.116Z,133696
2018-05-29T11:38:51.174Z,125792
2018-05-29T11:39:53.256Z,122304
2018-05-29T11:40:55.320Z,123072
2018-05-29T11:41:57.378Z,116096
2018-05-29T11:42:59.442Z,105152
2018-05-29T11:44:01.790Z,103488
2018-05-29T11:45:03.853Z,117088
2018-05-29T11:46:05.923Z,124672
2018-05-29T11:47:07.980Z,118720
2018-05-29T11:48:10.047Z,125536
2018-05-29T11:49:12.106Z,139584
2018-05-29T11:50:14.458Z,130208
2018-05-29T11:51:16.803Z,127872
2018-05-29T11:52:19.262Z,136704
2018-05-29T11:53:21.607Z,137216
2018-05-29T11:54:23.680Z,133312
2018-05-29T11:55:25.740Z,142656
2018-05-29T11:56:28.098Z,143392
2018-05-29T11:57:30.163Z,138208
2018-05-29T11:58:32.621Z,141856
2018-05-29T11:59:34.680Z,149056
2018-05-29T12:00:36.767Z,150432
2018-05-29T12:01:39.473Z,149152
2018-05-29T12:02:41.540Z,153280
2018-05-29T12:03:43.885Z,145024
2018-05-29T12:04:46.247Z,135008
2018-05-29T12:05:48.301Z,128672
2018-05-29T12:06:50.366Z,119008
2018-05-29T12:07:52.435Z,117056
2018-05-29T12:08:54.496Z,124672
2018-05-29T12:09:56.840Z,131488
2018-05-29T12:10:59.301Z,131552
2018-05-29T12:12:01.366Z,129760
2018-05-29T12:13:03.433Z,116352
2018-05-29T12:14:05.780Z,111104
2018-05-29T12:15:07.849Z,111680
2018-05-29T12:16:09.909Z,122144
2018-05-29T12:17:11.975Z,136992
2018-05-29T12:18:14.041Z,141920
2018-05-29T12:19:16.400Z,128896
2018-05-29T12:20:18.459Z,108000
2018-05-29T12:21:20.515Z,105184
2018-05-29T12:22:22.668Z,114208
2018-05-29T12:23:24.651Z,115872
2018-05-29T12:24:26.734Z,105344
2018-05-29T12:25:28.791Z,107552
2018-05-29T12:26:30.851Z,115680
2018-05-29T12:27:33.311Z,114112
2018-05-29T12:28:35.362Z,116544
2018-05-29T12:29:37.514Z,126368
2018-05-29T12:30:39.630Z,131136
2018-05-29T12:31:41.720Z,118592
2018-05-29T12:32:44.096Z,111776
2018-05-29T12:33:46.159Z,113184
2018-05-29T12:34:48.231Z,110560
2018-05-29T12:35:50.324Z,112448
2018-05-29T12:36:52.396Z,113024
2018-05-29T12:37:54.483Z,116448
2018-05-29T12:38:56.547Z,113632
2018-05-29T12:39:58.613Z,108064
2018-05-29T12:41:00.679Z,107328
2018-05-29T12:42:02.756Z,100064
2018-05-29T12:43:05.130Z,96736
2018-05-29T12:44:07.495Z,96608
2018-05-29T12:45:09.552Z,94880
2018-05-29T12:46:11.645Z,103808
2018-05-29T12:47:13.680Z,116672
2018-05-29T12:48:15.752Z,118112
2018-05-29T12:49:17.825Z,110816
2018-05-29T12:50:19.890Z,114272
2018-05-29T12:51:21.946Z,115200
2018-05-29T12:52:24.015Z,111776
2018-05-29T12:53:26.363Z,104960
2018-05-29T12:54:28.433Z,102944
2018-05-29T12:55:30.495Z,105760
2018-05-29T12:56:32.567Z,107904
2018-05-29T12:57:34.631Z,109600
2018-05-29T12:58:36.988Z,106528
2018-05-29T12:59:39.055Z,99936
2018-05-29T13:00:41.116Z,95872
2018-05-29T13:01:43.182Z,101664
2018-05-29T13:02:45.254Z,104704
2018-05-29T13:03:47.316Z,108864
2018-05-29T13:04:49.389Z,112928
2018-05-29T13:05:51.838Z,109600
2018-05-29T13:06:53.917Z,101184
2018-05-29T13:07:55.982Z,100512
2018-05-29T13:08:58.042Z,94432
2018-05-29T13:10:00.123Z,93312
2018-05-29T13:11:02.501Z,98976
2018-05-29T13:12:04.564Z,101120
2018-05-29T13:13:06.637Z,102240
2018-05-29T13:14:09.019Z,103072
2018-05-29T13:15:11.144Z,93024
2018-05-29T13:16:13.141Z,87744
2018-05-29T13:17:15.223Z,92064
2018-05-29T13:18:17.863Z,90432
2018-05-29T13:19:19.936Z,83808
2018-05-29T13:20:22.003Z,93248
2018-05-29T13:21:24.067Z,101440
2018-05-29T13:22:26.134Z,97824
2018-05-29T13:23:28.198Z,100800
2018-05-29T13:24:30.268Z,104800
2018-05-29T13:25:32.352Z,103776
2018-05-29T13:26:34.407Z,103360
2018-05-29T13:27:36.471Z,103072
2018-05-29T13:28:38.546Z,105504
2018-05-29T13:29:40.615Z,106528
2018-05-29T13:30:42.685Z,107552
2018-05-29T13:31:44.753Z,110400
2018-05-29T13:32:46.824Z,116512
2018-05-29T13:33:48.886Z,124768
2018-05-29T13:34:50.952Z,113888
2018-05-29T13:35:53.021Z,96256
2018-05-29T13:36:55.090Z,95328
2018-05-29T13:37:57.159Z,102208
2018-05-29T13:38:59.240Z,99136
2018-05-29T13:40:01.302Z,88992
2018-05-29T13:41:03.366Z,88864
2018-05-29T13:42:05.435Z,95360
2018-05-29T13:43:07.807Z,99392
2018-05-29T13:44:09.876Z,94752
2018-05-29T13:45:11.942Z,94848
2018-05-29T13:46:14.009Z,97632